Sand Springs, Oklahoma
Current Conditions -  °F | °C
As of 3:35 PM on Saturday 20 Dec 2014 (Local Time) from KOWP Reporting Station
Overcast Overcast  
Wind Chill: 44°   Ceiling: 2300
Heat Index: 47°   Visibility: 10mi
Dew Point: 35°   Wind: 6mph
Humidity: 64%   Direction: 180°S
Pressure: 30.17"   Gusts: NA
Location:  36.14°N, 96.11°W
Report Text: KOWP 202135Z AUTO 18005KT 10SM OVC023 08/02 A3017 RMK AO2 T00820018
Loading
Personal Weather Stations






























Interactive Weather Map New forecast layout! Learn more

10-Day Weather Forecast

Advertisements
Track Severe Weather on mobile